Time;durP1;ratioP1;P1;durP2;ratioP2;P2;SDS_P1;SDS_P2;PMS_P1;PMS_P2;Temp;Humidity;BMP_temperature;BMP_pressure;BME280_temperature;BME280_humidity;BME280_pressure;Samples;Min_cycle;Max_cycle;Signal;HPM_P1;HPM_P2
2022/08/03 00:00:46;;;;;;;5.93;5.27;;;;;22.30;98918.00;;;;16763964;28;20786;-76
2022/08/03 00:08:48;;;;;;;4.77;4.47;;;;;22.00;98919.00;;;;16775834;28;20834;-77
2022/08/03 00:16:52;;;;;;;6.10;5.60;;;;;22.60;98913.00;;;;16779563;28;20308;-76
2022/08/03 00:24:55;;;;;;;4.80;4.50;;;;;22.60;98913.00;;;;16757894;28;20565;-77
2022/08/03 00:32:59;;;;;;;5.50;5.00;;;;;22.10;98907.00;;;;16772905;28;20307;-77
2022/08/03 00:41:01;;;;;;;5.43;5.03;;;;;22.60;98907.00;;;;16776128;28;20236;-77
2022/08/03 00:49:05;;;;;;;6.10;5.50;;;;;22.80;98905.00;;;;16773410;28;20350;-77
2022/08/03 00:57:08;;;;;;;5.47;5.07;;;;;22.10;98910.00;;;;16769309;28;20229;-77
2022/08/03 01:05:12;;;;;;;5.43;4.93;;;;;22.80;98903.00;;;;16763996;28;20554;-77
2022/08/03 01:13:24;;;;;;;5.53;4.77;;;;;21.80;98905.00;;;;16776776;28;20744;-76
2022/08/03 01:21:29;;;;;;;8.40;5.93;;;;;21.80;98900.00;;;;16769127;28;20220;-76
2022/08/03 01:29:51;;;;;;;6.20;5.70;;;;;21.40;98884.00;;;;16762978;28;20303;-76
2022/08/03 01:38:00;;;;;;;5.93;5.47;;;;;21.50;98888.00;;;;16769530;28;20729;-77
2022/08/03 01:46:05;;;;;;;5.33;4.93;;;;;21.60;98881.00;;;;16774585;28;20274;-76
2022/08/03 01:54:09;;;;;;;6.00;5.40;;;;;21.20;98883.00;;;;16769701;28;20328;-76
2022/08/03 02:02:16;;;;;;;6.20;5.70;;;;;21.40;98874.00;;;;16754789;28;20216;-76
2022/08/03 02:10:20;;;;;;;6.03;5.53;;;;;21.80;98876.00;;;;16780060;28;20656;-76
2022/08/03 02:18:24;;;;;;;6.27;5.77;;;;;21.40;98881.00;;;;16768341;28;20296;-77
2022/08/03 02:26:30;;;;;;;6.90;6.27;;;;;21.50;98883.00;;;;16768379;28;20727;-76
2022/08/03 02:34:35;;;;;;;7.03;6.40;;;;;21.80;98872.00;;;;16769063;28;20673;-76
2022/08/03 02:42:39;;;;;;;6.83;5.83;;;;;21.70;98883.00;;;;16779718;28;20213;-76
2022/08/03 02:50:45;;;;;;;6.77;6.17;;;;;20.90;98879.00;;;;16775530;28;20592;-76
2022/08/03 02:58:49;;;;;;;8.50;6.57;;;;;20.70;98888.00;;;;16780713;28;20713;-76
2022/08/03 03:06:53;;;;;;;6.77;6.20;;;;;21.50;98874.00;;;;16773391;28;20223;-76
2022/08/03 03:14:56;;;;;;;6.03;5.63;;;;;21.60;98875.00;;;;16775336;28;20584;-76
2022/08/03 03:23:01;;;;;;;6.13;5.63;;;;;21.60;98864.00;;;;16779697;28;20193;-76
2022/08/03 03:31:04;;;;;;;6.50;6.00;;;;;21.30;98861.00;;;;16775304;28;20232;-77
2022/08/03 03:39:09;;;;;;;7.70;6.83;;;;;21.10;98859.00;;;;16790858;28;20229;-76
2022/08/03 03:47:12;;;;;;;6.10;5.57;;;;;21.40;98860.00;;;;16783841;28;20305;-76
2022/08/03 03:55:18;;;;;;;5.97;5.53;;;;;21.60;98866.00;;;;16796964;28;20386;-76
2022/08/03 04:03:20;;;;;;;7.33;6.63;;;;;21.00;98867.00;;;;16757471;28;20196;-76
2022/08/03 04:11:27;;;;;;;6.93;6.43;;;;;20.60;98871.00;;;;16782354;28;20254;-76
2022/08/03 04:19:32;;;;;;;6.97;6.47;;;;;20.80;98878.00;;;;16776913;28;20205;-76
2022/08/03 04:27:39;;;;;;;7.20;6.70;;;;;21.30;98874.00;;;;16772079;28;20304;-76
2022/08/03 04:35:43;;;;;;;6.50;5.90;;;;;21.20;98879.00;;;;16774835;28;20216;-76
2022/08/03 04:43:48;;;;;;;7.23;6.70;;;;;21.80;98884.00;;;;16755302;28;20197;-76
2022/08/03 04:51:51;;;;;;;9.70;6.80;;;;;21.90;98887.00;;;;16764123;28;20708;-75
2022/08/03 04:59:55;;;;;;;7.97;7.17;;;;;22.30;98889.00;;;;16757730;28;20222;-76
2022/08/03 05:07:57;;;;;;;7.63;6.20;;;;;22.40;98896.00;;;;16765452;28;20232;-76
2022/08/03 05:16:01;;;;;;;7.60;6.87;;;;;22.60;98891.00;;;;16752059;28;20316;-75
2022/08/03 05:24:04;;;;;;;8.10;6.67;;;;;22.90;98897.00;;;;16760278;28;20224;-75
2022/08/03 05:32:08;;;;;;;7.43;6.73;;;;;23.00;98898.00;;;;16770716;28;20224;-77
2022/08/03 05:40:12;;;;;;;7.30;6.70;;;;;23.30;98894.00;;;;16761697;28;20787;-76
2022/08/03 05:48:16;;;;;;;7.17;6.50;;;;;24.40;98893.00;;;;16753307;28;20218;-76
2022/08/03 05:56:21;;;;;;;6.70;6.10;;;;;24.60;98883.00;;;;16760983;28;20835;-76
2022/08/03 06:04:25;;;;;;;7.47;6.77;;;;;24.50;98884.00;;;;16764620;28;20221;-77
2022/08/03 06:12:27;;;;;;;6.07;5.57;;;;;24.90;98885.00;;;;16776477;28;20253;-76
2022/08/03 06:20:31;;;;;;;10.10;6.60;;;;;26.00;98890.00;;;;16757986;28;20351;-74
2022/08/03 06:28:34;;;;;;;7.67;6.97;;;;;25.00;98884.00;;;;16761182;28;20217;-77
2022/08/03 06:36:37;;;;;;;7.57;6.80;;;;;24.30;98886.00;;;;16764489;28;20304;-76
2022/08/03 06:44:40;;;;;;;7.40;6.70;;;;;24.50;98891.00;;;;16761946;28;20202;-76
2022/08/03 06:52:44;;;;;;;7.90;7.30;;;;;25.10;98896.00;;;;16746539;28;20224;-77
2022/08/03 07:00:46;;;;;;;7.03;6.33;;;;;25.20;98901.00;;;;16749210;28;20570;-76
2022/08/03 07:08:50;;;;;;;8.13;6.73;;;;;25.30;98901.00;;;;16750821;28;20785;-76
2022/08/03 07:16:53;;;;;;;8.07;5.90;;;;;25.60;98901.00;;;;16749906;28;20568;-77
2022/08/03 07:24:56;;;;;;;7.53;6.33;;;;;26.10;98884.00;;;;16734608;28;20460;-77
2022/08/03 07:32:59;;;;;;;8.30;6.73;;;;;26.30;98890.00;;;;16746381;28;20232;-77
2022/08/03 07:41:03;;;;;;;10.50;6.00;;;;;26.80;98885.00;;;;16758055;28;20214;-76
2022/08/03 07:49:05;;;;;;;5.50;5.00;;;;;27.50;98888.00;;;;16775096;28;20702;-77
2022/08/03 07:57:09;;;;;;;6.80;6.10;;;;;27.60;98882.00;;;;16782229;28;20288;-77
2022/08/03 08:05:12;;;;;;;15.00;5.93;;;;;28.30;98871.00;;;;16769839;28;20310;-77
2022/08/03 08:13:16;;;;;;;15.07;7.07;;;;;28.80;98865.00;;;;16755239;28;20227;-75
2022/08/03 08:21:19;;;;;;;6.00;5.50;;;;;28.80;98875.00;;;;16749152;28;20244;-74
2022/08/03 08:29:22;;;;;;;13.53;12.23;;;;;29.50;98861.00;;;;16761006;28;20663;-75
2022/08/03 08:37:25;;;;;;;6.80;4.70;;;;;29.60;98870.00;;;;16764969;28;20219;-77
2022/08/03 08:45:29;;;;;;;6.63;4.67;;;;;29.90;98863.00;;;;16771487;28;20225;-77
2022/08/03 08:53:34;;;;;;;4.10;2.93;;;;;29.80;98855.00;;;;16752275;28;20240;-74
2022/08/03 09:01:37;;;;;;;4.50;3.57;;;;;30.30;98855.00;;;;16767950;28;20762;-75
2022/08/03 09:09:41;;;;;;;2.57;2.37;;;;;30.60;98859.00;;;;16764896;28;20888;-75
2022/08/03 09:17:44;;;;;;;3.23;2.93;;;;;31.60;98852.00;;;;16759400;28;20252;-76
2022/08/03 09:25:47;;;;;;;3.07;2.87;;;;;31.50;98850.00;;;;16756159;28;20226;-75
2022/08/03 09:33:51;;;;;;;3.40;1.90;;;;;31.30;98846.00;;;;16744599;28;20681;-75
2022/08/03 09:42:06;;;;;;;2.90;2.07;;;;;31.30;98842.00;;;;16763760;28;20225;-75
2022/08/03 09:50:11;;;;;;;3.00;2.73;;;;;31.50;98846.00;;;;16760537;28;20331;-75
2022/08/03 09:58:14;;;;;;;2.40;2.20;;;;;31.50;98839.00;;;;16756186;28;20217;-75
2022/08/03 10:06:19;;;;;;;2.37;2.10;;;;;31.50;98834.00;;;;16763911;28;20224;-75
2022/08/03 10:14:25;;;;;;;8.80;8.20;;;;;33.30;98829.00;;;;16759449;28;20228;-75
2022/08/03 10:22:32;;;;;;;2.33;1.93;;;;;32.10;98824.00;;;;16749487;28;20221;-75
2022/08/03 10:30:36;;;;;;;2.40;1.77;;;;;32.30;98823.00;;;;16756286;28;20351;-74
2022/08/03 10:38:45;;;;;;;1.97;1.87;;;;;33.50;98810.00;;;;16769927;28;20232;-74
2022/08/03 10:46:49;;;;;;;2.53;2.33;;;;;33.70;98806.00;;;;16765322;28;20601;-73
2022/08/03 11:03:13;;;;;;;2.20;2.00;;;;;35.10;98798.00;;;;16770618;28;20250;-74
2022/08/03 11:11:28;;;;;;;2.10;2.00;;;;;35.70;98793.00;;;;16768232;28;20209;-74
2022/08/03 11:19:44;;;;;;;2.80;2.20;;;;;36.40;98796.00;;;;16772637;28;20222;-74
2022/08/03 11:27:48;;;;;;;1.97;1.87;;;;;36.20;98778.00;;;;16765685;28;20682;-74
2022/08/03 11:36:00;;;;;;;2.60;2.40;;;;;37.10;98774.00;;;;16785729;28;20225;-74
2022/08/03 11:44:03;;;;;;;2.30;2.10;;;;;36.20;98778.00;;;;16780193;28;20356;-75
2022/08/03 11:52:08;;;;;;;2.23;2.03;;;;;36.30;98775.00;;;;16782464;28;20233;-74
2022/08/03 12:00:32;;;;;;;2.00;1.90;;;;;37.20;98772.00;;;;16774204;28;20787;-75
2022/08/03 12:08:34;;;;;;;2.73;2.53;;;;;38.40;98761.00;;;;16782606;28;20241;-74
2022/08/03 12:16:38;;;;;;;3.90;2.00;;;;;38.40;98760.00;;;;16783306;28;20339;-74
2022/08/03 12:24:42;;;;;;;3.17;2.20;;;;;38.30;98761.00;;;;16774056;28;20272;-74
2022/08/03 12:32:46;;;;;;;2.77;1.97;;;;;38.20;98758.00;;;;16762713;28;20591;-75
2022/08/03 12:40:57;;;;;;;2.03;1.93;;;;;37.80;98761.00;;;;16768961;28;20245;-75
2022/08/03 12:49:13;;;;;;;1.93;1.80;;;;;38.20;98738.00;;;;16780914;28;20743;-75
2022/08/03 12:57:16;;;;;;;2.07;1.97;;;;;39.20;98743.00;;;;16777224;28;20221;-75
2022/08/03 13:05:20;;;;;;;2.83;2.30;;;;;39.50;98741.00;;;;16777406;28;20258;-75
2022/08/03 13:13:37;;;;;;;2.50;2.30;;;;;39.90;98729.00;;;;16778672;28;20225;-74
2022/08/03 13:21:41;;;;;;;3.50;2.40;;;;;39.80;98731.00;;;;16779035;28;20839;-75
2022/08/03 13:29:44;;;;;;;2.37;2.17;;;;;41.10;98729.00;;;;16772335;28;20222;-75
2022/08/03 13:37:48;;;;;;;1.90;1.70;;;;;39.80;98721.00;;;;16761688;28;20217;-75
2022/08/03 13:45:50;;;;;;;2.20;2.00;;;;;41.20;98720.00;;;;16760627;28;20234;-76
2022/08/03 13:53:54;;;;;;;2.03;1.67;;;;;41.70;98715.00;;;;16764055;28;20225;-76
2022/08/03 14:01:56;;;;;;;3.00;1.57;;;;;40.40;98705.00;;;;16755513;28;20303;-76
2022/08/03 14:10:00;;;;;;;1.70;1.60;;;;;40.40;98708.00;;;;16760042;28;20438;-76
2022/08/03 14:18:03;;;;;;;3.43;2.77;;;;;41.70;98694.00;;;;16755008;28;20229;-76
2022/08/03 14:26:08;;;;;;;2.27;2.07;;;;;42.10;98686.00;;;;16739439;28;20346;-76
2022/08/03 14:34:10;;;;;;;2.37;2.20;;;;;41.70;98689.00;;;;16736052;28;20986;-76
2022/08/03 14:42:14;;;;;;;2.87;2.03;;;;;42.50;98694.00;;;;16741125;28;20213;-74
2022/08/03 14:50:16;;;;;;;1.77;1.63;;;;;43.00;98692.00;;;;16736637;28;20223;-74
2022/08/03 14:58:20;;;;;;;1.77;1.67;;;;;42.90;98674.00;;;;16754169;28;20221;-74
2022/08/03 15:06:24;;;;;;;3.37;2.17;;;;;42.60;98672.00;;;;16759358;28;20320;-74
2022/08/03 15:14:27;;;;;;;1.90;1.70;;;;;42.40;98666.00;;;;16748798;28;20285;-75
2022/08/03 15:22:30;;;;;;;1.90;1.80;;;;;43.30;98662.00;;;;16740378;28;20636;-76
2022/08/03 15:30:35;;;;;;;1.60;1.50;;;;;44.10;98655.00;;;;16744079;28;20272;-76
2022/08/03 15:38:38;;;;;;;1.77;1.67;;;;;43.50;98647.00;;;;16764581;28;20216;-77
2022/08/03 15:46:41;;;;;;;2.30;2.17;;;;;44.70;98647.00;;;;16754258;28;20245;-74
2022/08/03 15:54:44;;;;;;;5.73;5.43;;;;;42.80;98646.00;;;;16746843;28;20213;-76
2022/08/03 16:02:48;;;;;;;1.90;1.80;;;;;44.20;98638.00;;;;16761544;28;20288;-77
2022/08/03 16:10:50;;;;;;;2.73;2.00;;;;;43.30;98629.00;;;;16763753;28;20295;-77
2022/08/03 16:18:54;;;;;;;1.73;1.43;;;;;44.60;98629.00;;;;16770762;28;20697;-77
2022/08/03 16:26:57;;;;;;;2.03;1.83;;;;;43.50;98630.00;;;;16763166;28;20235;-77
2022/08/03 16:35:01;;;;;;;2.23;2.13;;;;;44.00;98632.00;;;;16767547;28;20309;-77
2022/08/03 16:43:11;;;;;;;1.93;1.83;;;;;43.20;98618.00;;;;16741180;28;20202;-73
2022/08/03 16:51:14;;;;;;;2.20;2.00;;;;;41.20;98603.00;;;;16750017;28;20230;-75
2022/08/03 16:59:17;;;;;;;2.57;1.83;;;;;44.30;98607.00;;;;16741367;28;20300;-75
2022/08/03 17:07:21;;;;;;;2.37;2.20;;;;;45.00;98607.00;;;;16739038;28;20227;-75
2022/08/03 17:15:24;;;;;;;2.40;2.00;;;;;44.50;98604.00;;;;16747882;28;20229;-75
2022/08/03 17:23:41;;;;;;;3.13;1.90;;;;;45.10;98617.00;;;;16760127;28;20294;-75
2022/08/03 17:31:44;;;;;;;1.90;1.80;;;;;44.30;98627.00;;;;16764170;28;20236;-75
2022/08/03 17:39:48;;;;;;;2.30;2.00;;;;;44.10;98624.00;;;;16764607;28;20425;-75
2022/08/03 17:47:51;;;;;;;3.13;2.37;;;;;43.00;98628.00;;;;16742832;28;20339;-76
2022/08/03 17:56:04;;;;;;;3.10;2.80;;;;;43.60;98632.00;;;;16756179;28;20213;-75
2022/08/03 18:04:09;;;;;;;2.03;1.93;;;;;37.80;98633.00;;;;16746721;28;20199;-74
2022/08/03 18:12:16;;;;;;;2.57;2.33;;;;;34.50;98648.00;;;;16747941;28;20834;-74
2022/08/03 18:20:21;;;;;;;3.37;3.10;;;;;31.70;98650.00;;;;16741764;28;20217;-74
2022/08/03 18:28:26;;;;;;;2.63;2.43;;;;;30.70;98640.00;;;;16752349;28;20709;-75
2022/08/03 18:36:29;;;;;;;6.30;5.70;;;;;30.10;98638.00;;;;16771675;28;20795;-75
2022/08/03 18:44:33;;;;;;;2.90;2.60;;;;;30.20;98645.00;;;;16750401;28;20202;-74
2022/08/03 18:52:41;;;;;;;2.60;2.40;;;;;29.20;98637.00;;;;16735324;28;20220;-74
2022/08/03 19:00:51;;;;;;;6.13;5.50;;;;;28.70;98628.00;;;;16726011;28;20217;-73
2022/08/03 19:08:56;;;;;;;4.27;3.80;;;;;28.30;98638.00;;;;16726984;28;20237;-73
2022/08/03 19:17:04;;;;;;;3.97;3.60;;;;;28.00;98647.00;;;;16748748;28;20246;-74
2022/08/03 19:25:08;;;;;;;5.30;4.40;;;;;27.40;98646.00;;;;16769443;28;20285;-73
2022/08/03 19:33:14;;;;;;;2.93;2.67;;;;;27.50;98649.00;;;;16775846;28;20308;-74
2022/08/03 19:41:18;;;;;;;6.70;6.10;;;;;27.10;98657.00;;;;16776262;28;20225;-73
2022/08/03 19:49:26;;;;;;;3.67;3.33;;;;;27.20;98658.00;;;;16765207;28;20601;-73
2022/08/03 19:57:29;;;;;;;2.80;2.60;;;;;26.80;98652.00;;;;16776108;28;20233;-73
2022/08/03 20:05:33;;;;;;;3.37;3.10;;;;;26.50;98656.00;;;;16779025;28;20228;-73
2022/08/03 20:13:36;;;;;;;5.03;3.80;;;;;26.40;98655.00;;;;16778372;28;20225;-71
2022/08/03 20:21:41;;;;;;;3.53;3.07;;;;;26.10;98648.00;;;;16770045;28;20229;-74
2022/08/03 20:29:46;;;;;;;3.00;2.80;;;;;25.70;98656.00;;;;16753192;28;20359;-74
2022/08/03 20:37:49;;;;;;;3.53;3.07;;;;;25.50;98654.00;;;;16764223;28;20218;-74
2022/08/03 20:45:52;;;;;;;3.60;3.20;;;;;26.00;98646.00;;;;16518904;28;20331;-73
2022/08/03 20:53:56;;;;;;;3.20;2.90;;;;;26.80;98650.00;;;;16457828;28;20271;-73
2022/08/03 21:01:58;;;;;;;2.70;2.50;;;;;26.30;98647.00;;;;16494982;28;20612;-75
2022/08/03 21:10:05;;;;;;;2.90;2.70;;;;;26.60;98659.00;;;;16495342;28;20236;-74
2022/08/03 21:18:13;;;;;;;3.20;2.60;;;;;26.70;98656.00;;;;16495817;28;20220;-73
2022/08/03 21:26:18;;;;;;;3.77;3.40;;;;;26.20;98651.00;;;;16484660;28;20224;-73
2022/08/03 21:34:20;;;;;;;3.20;2.90;;;;;26.60;98645.00;;;;16502385;28;20278;-77
2022/08/03 21:42:25;;;;;;;3.00;2.70;;;;;26.70;98644.00;;;;16496455;28;20835;-74
2022/08/03 21:50:27;;;;;;;3.70;2.63;;;;;26.20;98641.00;;;;16491303;28;20311;-75
2022/08/03 21:58:32;;;;;;;2.93;2.60;;;;;26.40;98655.00;;;;16472492;28;20314;-74
2022/08/03 22:06:35;;;;;;;2.93;2.43;;;;;25.90;98646.00;;;;16502368;28;20238;-74
2022/08/03 22:14:39;;;;;;;2.70;2.50;;;;;26.10;98650.00;;;;16485485;28;20230;-75
2022/08/03 22:22:45;;;;;;;2.83;2.63;;;;;25.90;98661.00;;;;16491307;28;20902;-73
2022/08/03 22:30:48;;;;;;;3.13;2.73;;;;;25.80;98652.00;;;;16483823;28;20256;-73
2022/08/03 22:38:52;;;;;;;3.07;2.50;;;;;25.10;98657.00;;;;16494224;28;20221;-74
2022/08/03 22:46:56;;;;;;;3.70;2.43;;;;;25.80;98657.00;;;;16487947;28;20228;-74
2022/08/03 22:54:59;;;;;;;5.30;2.60;;;;;25.20;98658.00;;;;16482077;28;20724;-75
2022/08/03 23:03:07;;;;;;;4.53;2.47;;;;;25.80;98656.00;;;;16484057;28;21016;-73
2022/08/03 23:11:09;;;;;;;3.03;2.00;;;;;26.10;98655.00;;;;16500268;28;20227;-76
2022/08/03 23:19:13;;;;;;;3.37;2.17;;;;;24.80;98667.00;;;;16492241;28;20220;-77
2022/08/03 23:27:16;;;;;;;4.70;2.83;;;;;25.00;98671.00;;;;16495008;28;20307;-74
2022/08/03 23:43:40;;;;;;;3.90;2.40;;;;;24.50;98670.00;;;;16493060;28;20224;-74
2022/08/03 23:51:50;;;;;;;2.97;2.60;;;;;24.50;98667.00;;;;16497315;28;20574;-73
